• Join FlightAware (Why Join?)
  • Login
  • US Flag 
03:31PM EDT


 

Airport Tracker/Info


-or-


 

Live Flight TrackerFlight Track Log ✈ AWE3327 ✈ 29-Apr-2013 ✈ KDCA - KSRQ

Flight Track Log - Related Links

Times and Time Zones

All times are in EDT time to prevent confusion due to time zone crossing. See the AWE3327 flight status page for this flight to view local times or setup timezone preferences in your user account.

Time Position Orientation Groundspeed Altitude Reporting Facility
EDT Latitude Longitude Course Direction KTS MPH feet Rate Location/Type
09:52AM 38.8667 -77.0500 201° Southwest 157 181 1,000  Level Potomac TRACON
09:53AM 38.9000 -77.1000 311° West 214 246 2,200 1,860 Climbing Potomac TRACON
09:54AM 38.6299 -77.2868 218° Southwest  Level FlightAware Approximate
09:54AM 38.9667 -77.1500 330° Northwest 258 297 4,800  Level Potomac TRACON
09:55AM 38.5499 -77.3668 218° Southwest  Level FlightAware Approximate
09:55AM 39.0000 -77.2167 303° West 273 314 7,300  Level Potomac TRACON
09:56AM 38.4766 -77.4564 225° Southwest  Level FlightAware Approximate
09:56AM 38.9667 -77.3000 243° Southwest 287 330 10,100  Level Potomac TRACON
09:57AM 38.4013 -77.5410 201° Southwest  Level FlightAware Approximate
09:57AM 38.9000 -77.3333 201° Southwest 289 333 12,500  Level Potomac TRACON
09:58AM 38.8167 -77.3667 197° South 298 343 14,800 2,100 Climbing Potomac TRACON
09:59AM 38.7500 -77.4167 210° Southwest 299 344 16,700 1,320 Climbing Potomac TRACON
10:01AM 38.5989 -77.5708 219° Southwest 321 369 19,200 1,140 Climbing Washington Center
10:02AM 38.5142 -77.6508 216° Southwest 335 386 20,600 1,560 Climbing Washington Center
10:03AM 38.4419 -77.7256 219° Southwest 335 386 22,300 1,500 Climbing Washington Center
10:04AM 38.3697 -77.8003 219° Southwest 335 386 23,600 1,260 Climbing Washington Center
10:05AM 38.2956 -77.8750 218° Southwest 335 386 24,900 1,260 Climbing Washington Center
10:06AM 38.2189 -77.9517 218° Southwest 341 392 26,200 1,020 Climbing Washington Center
10:07AM 38.1400 -78.0311 218° Southwest 348 400 27,000 840 Climbing Washington Center
10:08AM 38.0614 -78.1103 218° Southwest 358 412 27,900 1,080 Climbing Washington Center
10:09AM 37.9933 -78.1739 216° Southwest 358 412 29,300 1,020 Climbing Washington Center
10:10AM 37.9144 -78.2528 218° Southwest 358 412 30,000 840 Climbing Washington Center
10:11AM 37.8356 -78.3289 217° Southwest 358 412 31,000 900 Climbing Washington Center
10:12AM 37.7522 -78.4075 217° Southwest 364 419 31,900 960 Climbing Washington Center
10:13AM 37.6692 -78.4831 216° Southwest 369 425 33,000 1,020 Climbing Washington Center
10:14AM 37.5903 -78.5586 217° Southwest 374 430 34,000 480 Climbing Washington Center
10:15AM 37.4983 -78.6442 216° Southwest 374 430 34,000  Level Washington Center
10:16AM 37.4150 -78.7217 216° Southwest 374 430 34,000  Level Washington Center
10:17AM 37.3317 -78.7994 217° Southwest 374 430 34,000  Level Washington Center
10:18AM 37.2461 -78.8767 216° Southwest 374 430 34,000  Level Washington Center
10:19AM 37.1625 -78.9564 217° Southwest 374 430 34,000  Level Washington Center
10:20AM 37.0853 -79.0258 216° Southwest 374 430 34,000  Level Washington Center
10:21AM 37.0017 -79.1028 216° Southwest 374 430 34,000  Level Washington Center
10:22AM 36.9181 -79.1822 217° Southwest 374 430 34,000  Level Washington Center
10:23AM 36.8364 -79.2589 217° Southwest 374 430 34,000  Level Washington Center
10:24AM 36.7400 -79.3450 216° Southwest 381 438 34,000  Level Washington Center
10:26AM 36.5447 -79.5244 216° Southwest 372 428 34,000  Level Atlanta Center
10:27AM 36.4578 -79.5989 215° Southwest 372 428 34,000  Level Atlanta Center
10:28AM 36.3728 -79.6758 216° Southwest 377 434 34,000  Level Atlanta Center
10:29AM 36.2881 -79.7553 217° Southwest 382 440 34,000  Level Atlanta Center
10:30AM 36.1950 -79.8372 215° Southwest 382 440 34,000  Level Atlanta Center
10:31AM 36.1081 -79.9164 216° Southwest 382 440 34,000  Level Atlanta Center
10:32AM 36.0206 -79.9850 212° Southwest 382 440 34,000  Level Atlanta Center
10:33AM 35.9200 -80.0361 202° Southwest 382 440 34,000  Level Atlanta Center
10:34AM 35.8339 -80.0789 202° Southwest 382 440 34,000  Level Atlanta Center
10:35AM 35.7353 -80.1322 204° Southwest 382 440 34,000  Level Atlanta Center
10:36AM 35.6411 -80.1828 204° Southwest 382 440 34,000  Level Atlanta Center
10:37AM 35.5444 -80.2306 202° Southwest 382 440 34,000  Level Atlanta Center
10:38AM 35.4478 -80.2786 202° Southwest 375 432 34,000  Level Atlanta Center
10:39AM 35.3533 -80.3261 202° Southwest 375 432 34,000  Level Atlanta Center
10:40AM 35.2547 -80.3736 201° Southwest 375 432 34,000  Level Atlanta Center
10:43AM 35.0172 -80.4922 202° Southwest 384 442 34,000  Level Jacksonville Center
10:44AM 34.9200 -80.5406 202° Southwest 379 436 34,000  Level Jacksonville Center
10:45AM 34.8231 -80.5886 202° Southwest 379 436 34,000  Level Jacksonville Center
10:46AM 34.7258 -80.6369 202° Southwest 373 429 34,000  Level Jacksonville Center
10:47AM 34.6286 -80.6847 202° Southwest 373 429 34,000  Level Jacksonville Center
10:48AM 34.5253 -80.7353 202° Southwest 391 450 34,000  Level Jacksonville Center
10:49AM 34.4281 -80.7831 202° Southwest 391 450 34,000  Level Jacksonville Center
10:50AM 34.3392 -80.8281 203° Southwest 391 450 34,000  Level Jacksonville Center
10:51AM 34.2375 -80.8731 200° South 381 438 34,000  Level Jacksonville Center
10:52AM 34.1361 -80.9231 202° Southwest 381 438 34,000  Level Jacksonville Center
10:53AM 34.0367 -80.9706 202° Southwest 387 445 34,000  Level Jacksonville Center
10:54AM 33.9353 -81.0178 201° Southwest 392 451 34,000  Level Jacksonville Center
10:55AM 33.8356 -81.0647 201° Southwest 392 451 34,000  Level Jacksonville Center
10:56AM 33.7342 -81.1194 204° Southwest 392 451 34,000  Level Jacksonville Center
10:57AM 33.6347 -81.1664 201° Southwest 392 451 34,000  Level Jacksonville Center
10:58AM 33.5331 -81.2156 202° Southwest 392 451 34,000  Level Jacksonville Center
10:59AM 33.4336 -81.2647 202° Southwest 392 451 34,000  Level Jacksonville Center
11:00AM 33.3319 -81.3164 203° Southwest 392 451 34,000  Level Jacksonville Center
11:01AM 33.2303 -81.3628 201° Southwest 392 451 34,000  Level Jacksonville Center
11:02AM 33.1286 -81.4142 203° Southwest 392 451 34,000  Level Jacksonville Center
11:03AM 33.0269 -81.4656 203° Southwest 392 451 34,000  Level Jacksonville Center
11:04AM 32.9253 -81.5142 202° Southwest 392 451 34,000  Level Jacksonville Center
11:05AM 32.8214 -81.5628 201° Southwest 392 451 34,000  Level Jacksonville Center
11:06AM 32.7175 -81.6161 203° Southwest 392 451 34,000  Level Jacksonville Center
11:07AM 32.6178 -81.6644 202° Southwest 392 451 34,000  Level Jacksonville Center
11:08AM 32.5242 -81.7100 202° Southwest 392 451 34,000  Level Jacksonville Center
11:09AM 32.4056 -81.7483 195° South 392 451 34,000  Level Jacksonville Center
11:10AM 32.3078 -81.7669 189° South 397 457 34,000  Level Jacksonville Center
11:11AM 32.1825 -81.7928 190° South 412 474 34,000  Level Jacksonville Center
11:12AM 32.0742 -81.8139 189° South 405 466 34,000  Level Jacksonville Center
11:13AM 31.9722 -81.8344 190° South 411 473 34,000  Level Jacksonville Center
11:14AM 31.8533 -81.8581 190° South 411 473 34,000  Level Jacksonville Center
11:15AM 31.7533 -81.8761 189° South 411 473 34,000  Level Jacksonville Center
11:16AM 31.6322 -81.9019 190° South 406 467 34,000  Level Jacksonville Center
11:17AM 31.5197 -81.9225 189° South 411 473 34,000  Level Jacksonville Center
11:18AM 31.4217 -81.9406 189° South 411 473 34,000  Level Jacksonville Center
11:19AM 31.3092 -81.9661 191° South 416 479 34,000  Level Jacksonville Center
11:20AM 31.1944 -81.9892 190° South 416 479 34,000  Level Jacksonville Center
11:21AM 31.0861 -82.0094 189° South 409 471 34,000  Level Jacksonville Center
11:22AM 30.9694 -82.0300 189° South 409 471 34,000  Level Jacksonville Center
11:23AM 30.8567 -82.0528 190° South 409 471 34,000  Level Jacksonville Center
11:24AM 30.7419 -82.0756 190° South 414 476 34,000  Level Jacksonville Center
11:25AM 30.6272 -82.0983 190° South 414 476 34,000  Level Jacksonville Center
11:26AM 30.5000 -82.1164 187° South 419 482 34,000  Level Jacksonville Center
11:27AM 30.3833 -82.1389 189° South 430 495 34,000  Level Jacksonville Center
11:28AM 30.2686 -82.1567 188° South 430 495 34,000  Level Jacksonville Center
11:29AM 30.1494 -82.1528 178° South 425 489 34,000  Level Jacksonville Center
11:30AM 30.0306 -82.1489 178° South 425 489 34,000 -60 Level Jacksonville Center
11:31AM 29.9094 -82.1497 180° South 425 489 33,900 -1,980 Descending Jacksonville Center
11:32AM 29.7925 -82.1483 179° South 425 489 30,100 -3,480 Descending Jacksonville Center
11:33AM 29.6733 -82.1397 176° South 425 489 27,000 -2,280 Descending Jacksonville Center
11:34AM 29.5586 -82.1358 178° South 419 482 25,600 -1,020 Descending Jacksonville Center
11:35AM 29.4458 -82.1342 179° South 419 482 25,000 -1,200 Descending Jacksonville Center
11:36AM 29.3353 -82.1328 179° South 409 471 23,300 -1,440 Descending Jacksonville Center
11:37AM 29.2289 -82.1286 178° South 399 459 22,200 -1,500 Descending Jacksonville Center
11:38AM 29.1264 -82.1272 179° South 392 451 20,300 -1,800 Descending Jacksonville Center
11:39AM 29.0283 -82.1256 179° South 369 425 18,600 -1,560 Descending Jacksonville Center
11:40AM 28.9406 -82.1239 179° South 357 411 17,200 -1,560 Descending Jacksonville Center
11:41AM 28.8467 -82.1150 175° South 351 404 15,500 -1,500 Descending Jacksonville Center
11:43AM 28.6667 -82.1167 180° South 340 391 13,000 -1,380 Descending Tampa TRACON
11:44AM 28.5667 -82.1000 172° South 334 384 11,600 -1,020 Descending Tampa TRACON
11:45AM 28.4833 -82.0833 170° South 329 379 11,000 -300 Descending Tampa TRACON
11:46AM 28.3833 -82.0833 180° South 325 374 11,000  Level Tampa TRACON
11:47AM 28.3000 -82.1000 190° South 322 371 11,000  Level Tampa TRACON
11:48AM 28.2000 -82.1167 188° South 323 372 11,000  Level Tampa TRACON
11:49AM 28.1167 -82.1333 190° South 323 372 11,000 -540 Level Tampa TRACON
11:50AM 28.0333 -82.1667 199° South 301 346 10,000 -1,500 Descending Tampa TRACON
11:51AM 27.9500 -82.1833 190° South 281 323 8,100 -1,800 Descending Tampa TRACON
11:52AM 27.8833 -82.2000 192° South 278 320 6,600 -1,080 Descending Tampa TRACON
11:53AM 27.8000 -82.2167 190° South 269 310 6,000 -300 Descending Tampa TRACON
11:54AM 27.7333 -82.2500 204° Southwest 274 315 6,000  Level Tampa TRACON
11:55AM 27.6833 -82.3167 230° Southwest 276 318 6,000  Level Tampa TRACON
11:56AM 27.6500 -82.4000 246° West 280 322 6,000 -300 Level Tampa TRACON
11:57AM 27.6167 -82.4667 241° Southwest 277 319 5,400 -1,140 Descending Tampa TRACON
11:58AM 27.5833 -82.5500 246° West 266 306 3,800 -1,680 Descending Tampa TRACON
11:59AM 27.5500 -82.6167 241° Southwest 260 299 2,100 -900 Descending Tampa TRACON
12:00PM 27.5000 -82.6500 211° Southwest 200 230 2,000 -120 Descending Tampa TRACON